Search for airport 
image banner adimage banner adimage banner ad
image banner ad

11CN - Shasta Rgnl Medical Center

Located in Redding, United States

ICAO - 11CN, IATA -

Data provided by Airmate  

General information

Coordinates: N40°35'8" W122°23'16"
Elevation is 622 feet MSL.
 
View others Airports in California

Operational data

Special qualification required
Current time UTC:
Current local time:
Weather at : KRDD - Redding Muni ( 12 km )
METAR: KRDD 292153Z 16006KT 10SM FU CLR 41/08 A2980 RMK AO2 SLP083 T04060078
TAF: KRDD 291812Z 2918/3018 VRB04KT P6SM BKN150 FM292200 18008KT P6SM SCT150 SCT250 FM300800 VRB04KT P6SM BKN150
View NOTAMs / SUP AIP / TFR affecting this airport [VIEW]
Communications frequencies: [VIEW]

Runways:

Airport contact information

Address: Redding United States

Satellite view of 11CN